メインページ
METAR-TAF:

METAR-TAF

空港 :

コトカ国際空港

アクラ, ガーナ

緯度: 05-36N, 経度: 000-10W, 海抜: 68m

現時点の気象観測

当レポートは39分前の05:00(UTC)に作成
西の風 6kt
気温 26°C
湿度 94%
気圧 1009 hPa
視程10km以上
高度3600ftの雲は散在している

METAR: DGAA 220500Z 26006KT 9999 SCT036 26/25 Q1009 NOSIG

時間: 05:39 (05:39 UTC)

予報

当レポートは39分前の05:00(UTC)に作成
予報は22日の 06時(UTC)から 23日の 12時(UTC)まで有効
西の風 8kt
視程10km以上
高度1200ftの千切れ雲あり
確率 30%
22日の 06時(UTC)から 22日の 09時(UTC)まで
視程: 5000m
22日の 11時(UTC)から 22日の 13時(UTC)まで徐々に
の風 15kt
高度2800ftの千切れ雲あり
確率 40%
22日の 16時(UTC)から 22日の 21時(UTC)まで
高度2500ftの雲はほとんどない, 積乱雲.
激しい雷雨
22日の 22時(UTC)から 23日の 00時(UTC)まで徐々に
高度1000ftの千切れ雲あり

TAF: DGAA 220500Z 2206/2312 26008KT 9999 BKN012 PROB30 2206/2209 5000 BR BECMG 2211/2213 18015KT BKN028 PROB40 2216/2221 TS FEW025CB BECMG 2222/2300 BKN010

4,000以上の空港の気象観測と天気予報(METAR報とTAF報)

利用可能な観測所は地図上に黄色い丸と赤い丸で示す。

丸の上にカーソルを重ねると観測所名を参照できる。

次にクリックすると気象観測と天気予報を参照できる。

マップの切り替え:黒色「×」印の緑ボタンをクリックして拡大、「-」印の緑ボタンをクリックして縮小、緑色の三角印をクリックして隣りの地図に切り替え


METAR-TAF: